Time;durP1;ratioP1;P1;durP2;ratioP2;P2;SDS_P1;SDS_P2;PMS_P1;PMS_P2;Temp;Humidity;BMP_temperature;BMP_pressure;BME280_temperature;BME280_humidity;BME280_pressure;Samples;Min_cycle;Max_cycle;Signal;HPM_P1;HPM_P2
2022/07/21 00:02:23;;;;;;;6.50;5.30;;;;;;;20.66;54.26;98968.05;219127;1276;22720;-70
2022/07/21 00:07:40;;;;;;;7.20;5.40;;;;;;;20.61;54.39;98963.33;219013;1276;22740;-75
2022/07/21 00:12:43;;;;;;;6.90;5.40;;;;;;;20.53;54.51;98962.75;219053;1276;22551;-69
2022/07/21 00:17:50;;;;;;;7.50;6.00;;;;;;;20.42;54.69;98967.45;218924;1276;24814;-71
2022/07/21 00:22:53;;;;;;;6.40;5.80;;;;;;;20.28;54.97;98964.92;219411;1276;24362;-71
2022/07/21 00:27:55;;;;;;;6.70;5.40;;;;;;;20.16;55.20;98964.66;219149;1276;25482;-71
2022/07/21 00:32:59;;;;;;;7.60;5.40;;;;;;;20.07;55.34;98970.04;219114;1276;22562;-69
2022/07/21 00:38:01;;;;;;;8.30;5.60;;;;;;;20.01;55.62;98971.34;219285;1276;22702;-70
2022/07/21 00:43:05;;;;;;;8.70;5.40;;;;;;;19.97;55.82;98968.13;219166;1276;22582;-70
2022/07/21 00:48:09;;;;;;;9.60;6.60;;;;;;;19.93;55.88;98959.17;219161;1276;22566;-70
2022/07/21 00:53:11;;;;;;;7.70;6.70;;;;;;;19.90;56.21;98964.98;218930;1276;24302;-71
2022/07/21 00:58:14;;;;;;;7.60;6.00;;;;;;;19.83;56.33;98969.23;218913;1276;331852;-71
2022/07/21 01:03:24;;;;;;;6.70;5.60;;;;;;;19.75;56.58;98962.52;219156;1276;23803;-69
2022/07/21 01:08:33;;;;;;;9.70;6.10;;;;;;;19.72;56.91;98955.44;219179;1276;23010;-70
2022/07/21 01:13:41;;;;;;;6.10;5.30;;;;;;;19.70;56.92;98954.06;219105;1276;24267;-71
2022/07/21 01:18:49;;;;;;;7.20;5.70;;;;;;;19.65;57.23;98955.95;219158;1276;25304;-70
2022/07/21 01:23:52;;;;;;;8.30;5.80;;;;;;;19.57;57.47;98956.86;219128;1276;25533;-70
2022/07/21 01:28:56;;;;;;;7.30;5.90;;;;;;;19.47;57.71;98953.17;219090;1276;25404;-70
2022/07/21 01:33:59;;;;;;;10.50;6.00;;;;;;;19.38;58.02;98948.95;219187;1276;24519;-72
2022/07/21 01:44:24;;;;;;;8.20;6.10;;;;;;;19.25;58.30;98937.08;219074;1276;25257;-70
2022/07/21 01:49:34;;;;;;;8.80;5.90;;;;;;;19.13;58.55;98931.54;219144;1276;24181;-70
2022/07/21 01:54:46;;;;;;;8.40;6.50;;;;;;;18.99;58.75;98923.20;219052;1276;25375;-70
2022/07/21 01:59:48;;;;;;;11.00;7.10;;;;;;;18.86;59.26;98916.92;219218;1276;23075;-70
2022/07/21 02:04:51;;;;;;;8.80;6.50;;;;;;;18.72;59.46;98922.39;219045;1276;22544;-70
2022/07/21 02:10:16;;;;;;;9.00;6.40;;;;;;;18.61;59.88;98927.17;219112;1276;22566;-71
2022/07/21 02:15:52;;;;;;;7.80;6.50;;;;;;;18.53;60.12;98928.17;219164;1276;22712;-70
2022/07/21 02:20:54;;;;;;;9.10;6.50;;;;;;;18.45;60.18;98925.71;219140;1276;22560;-71
2022/07/21 02:25:57;;;;;;;8.40;5.80;;;;;;;18.37;60.44;98914.54;219303;1276;22560;-70
2022/07/21 02:31:00;;;;;;;9.50;6.10;;;;;;;18.32;60.87;98910.66;219090;1276;22671;-71
2022/07/21 02:36:03;;;;;;;8.60;6.40;;;;;;;18.30;60.86;98910.34;219010;1276;23846;-70
2022/07/21 02:41:12;;;;;;;9.50;6.20;;;;;;;18.31;61.20;98910.38;219072;1277;22571;-71
2022/07/21 02:46:38;;;;;;;9.90;6.00;;;;;;;18.36;61.26;98909.70;219269;1276;22674;-71
2022/07/21 02:51:40;;;;;;;7.80;5.80;;;;;;;18.37;61.18;98913.73;219247;1276;22541;-70
2022/07/21 02:56:48;;;;;;;6.60;5.50;;;;;;;18.34;61.21;98911.88;219224;1276;25247;-70
2022/07/21 03:01:53;;;;;;;8.70;6.10;;;;;;;18.28;61.23;98914.41;219211;1276;22541;-70
2022/07/21 03:06:55;;;;;;;10.00;6.60;;;;;;;18.23;61.35;98919.95;219157;1276;22500;-73
2022/07/21 03:11:58;;;;;;;8.90;7.00;;;;;;;18.18;61.55;98913.70;219182;1276;22582;-70
2022/07/21 03:17:09;;;;;;;7.40;5.70;;;;;;;18.15;61.74;98907.06;219185;1276;22587;-71
2022/07/21 03:22:31;;;;;;;10.00;5.40;;;;;;;18.15;61.89;98911.70;219166;1276;22551;-73
2022/07/21 03:27:37;;;;;;;8.20;5.80;;;;;;;18.15;61.99;98911.79;219241;1276;25320;-70
2022/07/21 03:32:40;;;;;;;7.50;5.80;;;;;;;18.17;62.12;98909.38;219193;1276;22561;-69
2022/07/21 03:37:54;;;;;;;6.60;5.30;;;;;;;18.28;62.27;98910.21;219060;1276;22563;-69
2022/07/21 03:42:59;;;;;;;7.70;5.70;;;;;;;18.49;62.20;98915.16;219274;1276;22561;-69
2022/07/21 03:48:04;;;;;;;8.80;5.10;;;;;;;18.75;61.93;98917.40;219198;1276;25480;-70
2022/07/21 03:53:13;;;;;;;8.50;5.20;;;;;;;19.09;61.68;98916.06;219145;1276;22587;-69
2022/07/21 03:58:46;;;;;;;7.50;5.00;;;;;;;19.48;61.18;98917.89;219122;1276;23842;-69
2022/07/21 04:03:48;;;;;;;6.20;4.90;;;;;;;19.89;60.73;98924.55;218985;1276;25335;-71
2022/07/21 04:08:51;;;;;;;7.80;5.60;;;;;;;20.20;60.43;98933.85;219102;1276;25261;-71
2022/07/21 04:13:54;;;;;;;6.40;5.40;;;;;;;20.35;59.65;98936.18;219416;1276;25380;-71
2022/07/21 04:18:56;;;;;;;8.70;6.00;;;;;;;20.35;59.32;98940.15;219219;1276;22711;-72
2022/07/21 04:23:59;;;;;;;8.60;5.90;;;;;;;20.23;59.26;98943.56;219378;1276;22864;-70
2022/07/21 04:29:02;;;;;;;10.70;6.10;;;;;;;20.09;59.24;98942.20;219228;1276;22717;-70
2022/07/21 04:34:04;;;;;;;8.30;5.90;;;;;;;20.06;59.58;98940.33;219118;1277;24205;-70
2022/07/21 04:39:06;;;;;;;8.40;6.30;;;;;;;20.14;59.60;98939.70;219088;1276;22703;-69
2022/07/21 04:44:09;;;;;;;7.70;5.40;;;;;;;20.28;59.84;98931.80;219175;1276;25503;-70
2022/07/21 04:49:11;;;;;;;7.10;5.50;;;;;;;20.42;59.75;98936.90;219060;1276;22912;-70
2022/07/21 04:54:13;;;;;;;6.70;5.30;;;;;;;20.54;59.62;98942.88;218953;1276;22717;-70
2022/07/21 04:59:17;;;;;;;10.70;6.20;;;;;;;20.66;59.62;98942.48;219343;1276;24334;-72
2022/07/21 05:04:19;;;;;;;7.70;5.50;;;;;;;20.80;59.58;98952.80;219006;1276;23923;-70
2022/07/21 05:09:21;;;;;;;5.80;5.10;;;;;;;20.93;59.74;98941.80;219103;1276;25529;-70
2022/07/21 05:14:51;;;;;;;6.60;5.00;;;;;;;21.10;59.75;98949.04;219195;1276;22583;-72
2022/07/21 05:19:54;;;;;;;6.40;5.20;;;;;;;21.32;59.63;98945.48;219539;1276;24315;-71
2022/07/21 05:25:07;;;;;;;7.80;5.60;;;;;;;21.58;59.37;98943.78;219159;1276;22544;-72
2022/07/21 05:30:10;;;;;;;7.60;5.50;;;;;;;21.83;58.95;98948.81;219207;1277;23754;-73
2022/07/21 05:35:13;;;;;;;6.40;5.30;;;;;;;22.08;58.53;98951.08;219180;1276;22566;-68
2022/07/21 05:40:15;;;;;;;9.60;5.40;;;;;;;22.32;58.12;98948.16;219024;1276;22628;-71
2022/07/21 05:45:27;;;;;;;12.10;6.40;;;;;;;22.54;57.54;98953.86;219079;1276;24300;-71
2022/07/21 05:50:29;;;;;;;7.80;5.30;;;;;;;22.76;57.35;98962.80;218742;1276;22596;-70
2022/07/21 05:55:35;;;;;;;9.60;6.10;;;;;;;22.97;57.12;98963.52;218723;1276;22597;-70
2022/07/21 06:00:38;;;;;;;8.90;6.10;;;;;;;23.20;56.60;98963.10;218800;1278;24283;-70
2022/07/21 06:05:40;;;;;;;8.90;6.20;;;;;;;23.46;56.17;98968.29;219076;1276;22736;-71
2022/07/21 06:10:43;;;;;;;7.80;5.80;;;;;;;23.69;55.65;98967.58;218701;1276;22750;-70
2022/07/21 06:15:45;;;;;;;8.20;7.20;;;;;;;23.93;54.96;98967.02;218386;1277;24395;-71
2022/07/21 06:20:47;;;;;;;8.80;7.20;;;;;;;24.18;54.54;98976.52;218601;1276;26097;-71
2022/07/21 06:25:52;;;;;;;8.50;5.90;;;;;;;24.42;54.22;98974.65;218875;1279;24236;-71
2022/07/21 06:30:54;;;;;;;7.30;6.20;;;;;;;24.69;53.47;98980.94;218851;1276;25369;-70
2022/07/21 06:36:13;;;;;;;7.70;6.90;;;;;;;24.94;53.25;98980.67;218707;1278;22738;-70
2022/07/21 06:41:35;;;;;;;8.10;7.00;;;;;;;25.22;52.83;98982.66;219003;1276;24451;-70
2022/07/21 06:46:51;;;;;;;8.50;6.40;;;;;;;25.46;52.31;98979.70;218594;1277;22567;-70
2022/07/21 06:52:01;;;;;;;7.00;6.20;;;;;;;25.73;51.50;98969.95;218804;1276;22554;-69
2022/07/21 06:57:04;;;;;;;8.50;6.40;;;;;;;26.02;50.76;98971.79;218455;1276;22629;-69
2022/07/21 07:02:06;;;;;;;7.60;6.10;;;;;;;26.24;50.04;98972.72;218239;1276;24442;-70
2022/07/21 07:07:09;;;;;;;6.20;5.60;;;;;;;26.50;49.69;98968.67;218380;1276;22573;-71
2022/07/21 07:12:11;;;;;;;7.60;6.00;;;;;;;26.79;49.15;98964.46;218771;1277;25463;-72
2022/07/21 07:17:34;;;;;;;8.60;6.40;;;;;;;27.05;48.51;98964.84;218366;1278;25272;-70
2022/07/21 07:22:36;;;;;;;6.90;6.10;;;;;;;27.22;48.27;98961.20;218561;1278;22568;-72
2022/07/21 07:27:41;;;;;;;9.60;7.00;;;;;;;27.45;47.94;98961.70;218549;1277;22575;-72
2022/07/21 07:32:44;;;;;;;7.10;6.40;;;;;;;27.66;47.68;98961.55;220410;1277;22564;-72
2022/07/21 07:37:47;;;;;;;7.50;6.50;;;;;;;27.83;46.89;98963.13;220248;1278;23008;-72
2022/07/21 07:42:50;;;;;;;6.70;6.00;;;;;;;27.99;46.64;98964.80;220393;1277;24236;-72
2022/07/21 07:47:52;;;;;;;7.50;6.00;;;;;;;28.16;46.45;98964.17;220420;1278;22607;-75
2022/07/21 07:52:54;;;;;;;7.10;6.40;;;;;;;28.39;45.83;98967.63;220277;1276;22519;-72
2022/07/21 07:57:56;;;;;;;6.40;5.70;;;;;;;28.57;45.56;98968.30;220128;1278;22573;-72
2022/07/21 08:03:12;;;;;;;7.50;6.00;;;;;;;28.79;45.30;98971.38;220401;1278;23362;-72
2022/07/21 08:08:15;;;;;;;6.40;5.80;;;;;;;28.99;44.82;98975.13;220302;1278;22582;-72
2022/07/21 08:13:18;;;;;;;7.90;6.00;;;;;;;29.13;44.51;98979.24;220450;1276;22669;-72
2022/07/21 08:18:29;;;;;;;7.80;5.80;;;;;;;29.33;44.36;98980.56;220933;1278;22691;-73
2022/07/21 08:23:52;;;;;;;7.30;5.60;;;;;;;29.65;43.99;98975.86;220571;1278;25243;-74
2022/07/21 08:29:19;;;;;;;6.30;5.70;;;;;;;29.98;43.26;98974.36;220900;1277;22545;-73
2022/07/21 08:34:21;;;;;;;7.40;6.10;;;;;;;30.21;42.55;98977.44;220671;1278;22554;-73
2022/07/21 08:39:31;;;;;;;5.80;5.10;;;;;;;30.44;41.88;98979.80;220742;1278;22564;-72
2022/07/21 08:44:34;;;;;;;5.70;4.50;;;;;;;30.67;41.05;98986.10;220879;1276;25262;-71
2022/07/21 08:49:38;;;;;;;4.60;4.20;;;;;;;30.86;40.02;98985.94;219401;1278;22582;-72
2022/07/21 08:54:44;;;;;;;11.00;4.70;;;;;;;31.06;38.94;98978.35;218312;1278;22560;-72
2022/07/21 08:59:46;;;;;;;5.70;3.90;;;;;;;31.20;37.91;98973.81;220610;1277;22641;-72
2022/07/21 09:04:50;;;;;;;4.80;4.30;;;;;;;31.35;37.51;98976.94;220818;1278;22591;-72
2022/07/21 09:10:12;;;;;;;4.40;4.00;;;;;;;31.61;37.01;98970.13;220681;1280;23094;-76
2022/07/21 09:15:18;;;;;;;5.80;4.50;;;;;;;31.84;36.75;98962.70;220605;1278;25561;-73
2022/07/21 09:20:25;;;;;;;9.10;4.60;;;;;;;32.05;36.33;98954.88;220284;1277;27341;-73
2022/07/21 09:25:37;;;;;;;6.40;5.40;;;;;;;32.26;35.87;98952.60;220227;1278;25388;-71
2022/07/21 09:31:02;;;;;;;8.80;4.90;;;;;;;32.37;35.87;98950.59;220062;1277;24435;-72
2022/07/21 09:36:13;;;;;;;6.20;4.60;;;;;;;32.46;35.11;98957.27;220288;1277;24159;-73
2022/07/21 09:41:19;;;;;;;6.20;4.60;;;;;;;32.45;34.63;98955.89;220306;1276;26123;-72
2022/07/21 09:46:28;;;;;;;8.00;4.70;;;;;;;32.50;34.69;98952.67;220213;1278;24453;-74
2022/07/21 09:51:34;;;;;;;7.70;4.60;;;;;;;32.55;34.56;98951.44;219051;1277;23853;-70
2022/07/21 09:56:38;;;;;;;6.60;5.10;;;;;;;32.67;34.62;98951.31;218923;1277;25700;-71
2022/07/21 10:01:41;;;;;;;6.50;4.90;;;;;;;32.84;34.68;98951.62;218892;1278;23068;-70
2022/07/21 10:06:46;;;;;;;7.10;5.20;;;;;;;33.02;34.44;98957.23;219065;1277;22581;-71
2022/07/21 10:11:49;;;;;;;5.10;4.60;;;;;;;33.11;34.09;98953.03;218886;1278;27550;-70
2022/07/21 10:16:52;;;;;;;6.30;5.20;;;;;;;33.25;33.96;98949.02;218850;1277;24322;-69
2022/07/21 10:22:21;;;;;;;6.50;5.00;;;;;;;33.42;33.63;98945.02;218902;1277;25424;-70
2022/07/21 10:27:23;;;;;;;11.60;5.50;;;;;;;33.61;33.43;98941.91;218910;1278;22703;-69
2022/07/21 10:32:50;;;;;;;6.10;5.20;;;;;;;33.77;32.75;98944.10;219068;1278;25230;-69
2022/07/21 10:37:53;;;;;;;6.60;5.20;;;;;;;33.87;32.38;98938.82;218880;1277;22714;-70
2022/07/21 10:42:59;;;;;;;5.30;4.30;;;;;;;33.93;32.46;98935.20;219024;1277;24290;-71
2022/07/21 10:48:27;;;;;;;6.80;4.80;;;;;;;34.03;31.74;98932.67;218963;1276;24317;-69
2022/07/21 10:53:30;;;;;;;6.70;4.20;;;;;;;34.16;31.29;98931.94;218972;1276;22578;-71
2022/07/21 10:58:39;;;;;;;5.40;4.60;;;;;;;34.32;31.17;98929.81;218960;1277;23812;-70
2022/07/21 11:03:45;;;;;;;5.10;4.60;;;;;;;34.44;31.02;98931.72;219131;1277;25263;-69
2022/07/21 11:08:58;;;;;;;6.00;5.10;;;;;;;34.60;30.67;98928.06;219199;1277;23979;-72
2022/07/21 11:14:06;;;;;;;6.00;4.50;;;;;;;34.74;30.52;98920.25;220318;1277;22538;-74
2022/07/21 11:19:27;;;;;;;5.40;4.10;;;;;;;34.83;30.13;98912.16;220190;1278;22687;-74
2022/07/21 11:24:29;;;;;;;4.70;4.00;;;;;;;34.97;29.27;98913.52;220154;1277;25411;-74
2022/07/21 11:29:36;;;;;;;4.80;4.30;;;;;;;35.15;29.07;98910.05;219927;1278;22628;-74
2022/07/21 11:34:46;;;;;;;;;;;;;;;35.20;28.69;98904.96;220053;1276;25320;-74
2022/07/21 11:39:49;;;;;;;5.00;4.30;;;;;;;35.06;28.47;98904.05;220158;1276;24256;-72
2022/07/21 11:44:52;;;;;;;5.50;4.70;;;;;;;35.08;28.49;98903.80;220233;1276;25365;-73
2022/07/21 11:49:57;;;;;;;7.40;5.50;;;;;;;35.18;28.48;98895.42;219915;1277;25256;-73
2022/07/21 11:55:01;;;;;;;6.50;4.80;;;;;;;35.28;28.56;98886.36;220539;1277;22563;-74
2022/07/21 12:00:07;;;;;;;7.10;4.80;;;;;;;35.38;28.38;98881.12;220350;1276;24221;-74
2022/07/21 12:05:15;;;;;;;6.70;4.80;;;;;;;35.39;28.36;98880.60;220305;1276;22585;-72
2022/07/21 12:10:27;;;;;;;5.30;4.70;;;;;;;35.39;28.09;98876.39;219964;1277;22624;-74
2022/07/21 12:15:33;;;;;;;4.80;4.30;;;;;;;35.38;28.23;98879.36;220031;1277;22757;-72
2022/07/21 12:20:36;;;;;;;4.90;4.40;;;;;;;35.43;28.48;98876.63;220103;1276;22564;-73
2022/07/21 12:25:40;;;;;;;6.30;4.40;;;;;;;35.49;28.30;98878.60;220151;1277;25356;-73
2022/07/21 12:30:51;;;;;;;5.00;4.40;;;;;;;35.41;28.22;98869.79;220300;1276;22593;-72
2022/07/21 12:36:10;;;;;;;5.10;4.60;;;;;;;35.31;28.38;98864.98;220058;1276;23303;-73
2022/07/21 12:41:15;;;;;;;5.00;4.50;;;;;;;35.31;28.46;98859.82;220122;1276;22544;-74
2022/07/21 12:46:48;;;;;;;4.90;4.50;;;;;;;35.31;28.12;98858.29;220308;1276;22666;-74
2022/07/21 12:51:56;;;;;;;5.70;4.60;;;;;;;35.35;28.07;98852.83;220009;1276;24114;-73
2022/07/21 12:57:32;;;;;;;7.10;4.80;;;;;;;35.38;28.50;98847.39;219891;1276;515121;-73
2022/07/21 13:02:51;;;;;;;6.00;4.90;;;;;;;35.43;28.47;98840.12;220383;1276;22557;-74
2022/07/21 13:07:53;;;;;;;6.70;4.90;;;;;;;35.49;28.37;98834.80;220121;1276;23100;-73
2022/07/21 13:12:56;;;;;;;5.10;4.60;;;;;;;35.50;28.21;98837.18;220302;1276;24238;-74
2022/07/21 13:17:58;;;;;;;5.70;4.80;;;;;;;35.51;28.14;98835.23;220177;1276;23258;-74
2022/07/21 13:23:00;;;;;;;7.60;6.30;;;;;;;35.52;28.00;98831.77;220339;1276;24328;-72
2022/07/21 13:28:16;;;;;;;5.50;4.40;;;;;;;35.56;28.05;98831.73;220143;1276;23988;-74
2022/07/21 13:33:39;;;;;;;7.20;4.60;;;;;;;35.64;27.40;98823.36;220098;1276;22604;-73
2022/07/21 13:38:41;;;;;;;5.20;3.70;;;;;;;35.64;26.39;98823.83;220360;1276;25261;-73
2022/07/21 13:43:43;;;;;;;5.50;4.40;;;;;;;35.64;26.25;98819.84;220007;1276;22580;-73
2022/07/21 13:48:47;;;;;;;6.10;4.10;;;;;;;35.64;26.15;98817.55;220348;1276;22579;-73
2022/07/21 13:53:52;;;;;;;6.70;3.90;;;;;;;35.61;25.96;98815.67;220365;1276;22731;-71
2022/07/21 13:58:55;;;;;;;5.80;4.50;;;;;;;35.73;25.94;98820.64;220769;1276;23140;-71
2022/07/21 14:03:57;;;;;;;5.10;4.00;;;;;;;35.82;26.02;98815.05;217922;1276;23822;-69
2022/07/21 14:09:01;;;;;;;7.60;4.30;;;;;;;35.89;25.56;98813.96;219063;1276;22565;-69
2022/07/21 14:14:03;;;;;;;7.90;5.00;;;;;;;35.92;25.27;98808.99;218928;1278;22920;-70
2022/07/21 14:19:05;;;;;;;6.90;4.30;;;;;;;35.94;25.01;98805.36;219056;1276;23027;-71
2022/07/21 14:29:51;;;;;;;5.20;4.20;;;;;;;35.98;24.24;98793.27;218997;1278;22584;-70
2022/07/21 14:34:54;;;;;;;5.70;4.40;;;;;;;35.95;24.42;98787.60;218846;1278;22919;-70
2022/07/21 14:39:56;;;;;;;5.70;4.20;;;;;;;35.97;24.70;98782.80;218958;1277;24301;-68
2022/07/21 14:44:59;;;;;;;5.30;4.40;;;;;;;35.94;24.46;98778.10;219004;1277;25361;-73
2022/07/21 14:50:01;;;;;;;5.10;4.60;;;;;;;35.90;24.51;98770.36;218889;1276;23095;-70
2022/07/21 14:55:05;;;;;;;5.60;4.30;;;;;;;35.87;24.40;98762.04;219147;1276;24326;-70
2022/07/21 15:00:09;;;;;;;7.00;4.50;;;;;;;35.80;24.26;98761.98;219044;1276;22720;-70
2022/07/21 15:05:11;;;;;;;5.10;3.80;;;;;;;35.72;24.20;98757.70;219121;1276;25258;-70
2022/07/21 15:10:21;;;;;;;9.80;4.20;;;;;;;35.61;24.25;98758.36;219017;1276;24223;-71
2022/07/21 15:15:23;;;;;;;6.10;3.40;;;;;;;35.51;24.29;98752.09;219180;1276;24232;-71
2022/07/21 15:20:25;;;;;;;4.10;3.70;;;;;;;35.50;23.78;98754.71;219077;1276;22583;-71
2022/07/21 15:25:28;;;;;;;4.30;3.90;;;;;;;35.48;23.67;98749.89;219020;1276;22544;-70
2022/07/21 15:30:44;;;;;;;4.50;3.80;;;;;;;35.48;23.92;98739.64;218861;1276;22556;-71
2022/07/21 15:36:00;;;;;;;7.20;3.60;;;;;;;35.47;24.19;98743.09;218833;1276;24449;-70
2022/07/21 15:41:02;;;;;;;4.70;3.90;;;;;;;35.38;24.31;98734.96;219172;1276;22557;-70
2022/07/21 15:46:18;;;;;;;5.80;3.80;;;;;;;35.32;24.56;98733.11;218869;1276;22587;-71
2022/07/21 15:51:33;;;;;;;5.80;3.30;;;;;;;35.19;24.01;98729.30;218935;1276;22642;-72
2022/07/21 15:56:36;;;;;;;4.30;3.60;;;;;;;35.10;23.82;98729.81;218889;1276;22573;-71
2022/07/21 16:01:38;;;;;;;4.60;3.30;;;;;;;35.06;23.72;98734.42;218909;1276;24309;-70
2022/07/21 16:06:40;;;;;;;4.70;3.60;;;;;;;35.10;23.89;98727.49;219031;1276;24147;-71
2022/07/21 16:11:43;;;;;;;7.60;3.50;;;;;;;35.08;24.29;98726.08;219063;1276;25606;-71
2022/07/21 16:16:45;;;;;;;4.50;3.50;;;;;;;35.00;24.51;98720.19;218934;1276;25269;-70
2022/07/21 16:21:50;;;;;;;4.10;3.60;;;;;;;34.85;24.62;98720.05;218990;1276;23340;-72
2022/07/21 16:26:52;;;;;;;6.30;5.50;;;;;;;34.73;24.72;98724.65;219067;1276;24928;-71
2022/07/21 16:32:01;;;;;;;4.50;3.90;;;;;;;34.61;24.93;98714.92;219098;1276;25380;-70
2022/07/21 16:37:06;;;;;;;5.20;3.60;;;;;;;34.47;24.95;98713.20;219129;1276;22718;-71
2022/07/21 16:42:08;;;;;;;6.60;3.70;;;;;;;34.30;25.10;98711.36;218961;1276;25447;-69
2022/07/21 16:47:14;;;;;;;5.50;3.50;;;;;;;34.11;25.11;98715.58;218945;1276;22559;-71
2022/07/21 16:52:16;;;;;;;6.70;3.50;;;;;;;33.89;25.55;98712.14;219147;1276;22544;-70
2022/07/21 16:57:19;;;;;;;8.80;4.20;;;;;;;33.74;25.84;98715.23;218895;1276;22540;-69
2022/07/21 17:02:21;;;;;;;4.60;3.80;;;;;;;33.64;25.97;98715.61;218951;1276;24241;-69
2022/07/21 17:07:24;;;;;;;10.40;4.20;;;;;;;33.54;26.10;98717.14;219010;1276;22563;-71
2022/07/21 17:12:27;;;;;;;6.00;4.40;;;;;;;33.38;26.73;98709.63;218872;1276;24339;-70
2022/07/21 17:17:29;;;;;;;6.20;4.60;;;;;;;33.21;27.00;98711.41;219181;1276;22713;-71
2022/07/21 17:22:32;;;;;;;6.70;3.70;;;;;;;33.04;27.63;98707.90;219040;1276;24257;-71
2022/07/21 17:27:35;;;;;;;6.60;4.30;;;;;;;33.40;27.66;98695.92;218941;1276;23948;-69
2022/07/21 17:32:38;;;;;;;7.10;4.40;;;;;;;34.19;27.61;98694.83;218980;1276;22557;-69
2022/07/21 17:37:42;;;;;;;6.90;4.00;;;;;;;34.83;27.42;98690.50;218966;1276;24428;-71
2022/07/21 17:42:49;;;;;;;6.70;4.70;;;;;;;35.18;27.31;98687.90;219058;1276;22649;-69
2022/07/21 17:47:52;;;;;;;10.20;4.80;;;;;;;34.50;27.44;98682.02;219134;1276;22615;-70
2022/07/21 17:52:54;;;;;;;7.40;4.20;;;;;;;33.45;28.12;98679.23;219410;1276;22551;-71
2022/07/21 18:03:34;;;;;;;8.00;5.70;;;;;;;31.67;30.36;98686.23;218700;1276;24214;-70
2022/07/21 18:08:36;;;;;;;7.20;5.40;;;;;;;31.07;31.28;98681.81;219208;1276;22928;-71
2022/07/21 18:13:40;;;;;;;5.20;4.60;;;;;;;30.56;31.94;98683.90;219158;1276;24131;-70
2022/07/21 18:18:42;;;;;;;7.00;5.10;;;;;;;30.11;32.61;98683.63;219236;1276;23996;-70
2022/07/21 18:23:44;;;;;;;5.10;4.60;;;;;;;29.75;33.34;98686.30;219120;1276;25399;-71
2022/07/21 18:28:48;;;;;;;9.70;5.00;;;;;;;29.46;33.89;98685.77;219281;1276;26516;-69
2022/07/21 18:33:50;;;;;;;9.50;5.20;;;;;;;29.17;34.26;98687.17;219191;1276;22689;-70
2022/07/21 18:38:53;;;;;;;6.30;5.00;;;;;;;28.86;34.64;98691.07;219171;1276;24246;-70
2022/07/21 18:44:10;;;;;;;10.60;5.50;;;;;;;28.56;35.33;98695.38;218900;1276;24341;-70
2022/07/21 18:49:26;;;;;;;7.10;4.80;;;;;;;28.25;35.52;98693.52;219193;1276;24300;-70
2022/07/21 18:54:29;;;;;;;7.30;4.50;;;;;;;27.94;36.10;98694.98;219084;1276;24246;-69
2022/07/21 18:59:41;;;;;;;10.00;5.00;;;;;;;27.64;36.53;98701.20;219288;1276;22599;-70
2022/07/21 19:04:56;;;;;;;5.40;4.80;;;;;;;27.34;36.98;98702.81;219086;1276;22566;-72
2022/07/21 19:09:59;;;;;;;9.20;5.80;;;;;;;27.07;37.45;98699.21;219238;1276;26457;-71
2022/07/21 19:15:02;;;;;;;7.80;6.10;;;;;;;26.82;37.92;98704.20;219139;1276;24372;-71
2022/07/21 19:20:05;;;;;;;8.50;6.70;;;;;;;26.58;38.27;98710.09;219282;1276;24238;-72
2022/07/21 19:25:08;;;;;;;9.20;6.10;;;;;;;26.35;38.71;98708.11;219350;1276;24263;-69
2022/07/21 19:30:13;;;;;;;9.60;7.00;;;;;;;26.12;39.13;98706.75;219036;1277;22566;-70
2022/07/21 19:35:16;;;;;;;7.50;5.80;;;;;;;25.90;39.61;98706.35;219187;1276;24272;-70
2022/07/21 19:40:18;;;;;;;10.60;6.30;;;;;;;25.71;40.07;98705.35;219104;1276;22579;-70
2022/07/21 19:45:21;;;;;;;8.20;5.00;;;;;;;25.55;40.53;98708.32;219201;1276;22545;-72
2022/07/21 19:50:23;;;;;;;7.20;5.30;;;;;;;25.40;40.83;98709.87;219040;1276;24425;-70
2022/07/21 19:55:26;;;;;;;5.60;4.80;;;;;;;25.25;41.05;98711.08;218859;1276;22563;-69
2022/07/21 20:00:29;;;;;;;6.20;4.80;;;;;;;25.11;41.59;98712.85;219029;1276;22580;-68
2022/07/21 20:05:42;;;;;;;8.10;5.20;;;;;;;24.96;41.97;98708.41;219011;1276;22545;-72
2022/07/21 20:10:46;;;;;;;5.50;4.90;;;;;;;24.82;42.30;98705.48;218985;1276;22640;-69
2022/07/21 20:15:49;;;;;;;6.80;5.20;;;;;;;24.70;42.97;98702.85;219123;1276;22753;-70
2022/07/21 20:20:52;;;;;;;6.30;5.20;;;;;;;24.58;43.51;98695.58;219038;1276;22576;-70
2022/07/21 20:25:55;;;;;;;7.70;4.30;;;;;;;24.49;43.85;98695.84;218985;1276;22699;-70
2022/07/21 20:31:17;;;;;;;5.10;4.30;;;;;;;24.37;43.99;98698.67;219067;1276;22721;-70
2022/07/21 20:36:22;;;;;;;5.60;4.20;;;;;;;24.25;44.42;98700.64;219010;1276;22545;-70
2022/07/21 20:41:24;;;;;;;6.50;4.30;;;;;;;24.11;44.75;98703.92;219003;1276;22637;-71
2022/07/21 20:46:27;;;;;;;8.10;4.30;;;;;;;23.96;44.65;98700.61;219005;1276;22628;-70
2022/07/21 20:51:29;;;;;;;6.50;4.60;;;;;;;23.83;45.16;98703.85;219006;1276;22838;-71
2022/07/21 20:56:32;;;;;;;8.10;4.60;;;;;;;23.70;45.39;98701.64;219222;1276;23963;-70
2022/07/21 21:01:54;;;;;;;11.90;9.50;;;;;;;23.57;45.46;98701.99;218927;1276;22560;-71
2022/07/21 21:06:57;;;;;;;7.90;4.60;;;;;;;23.44;45.98;98702.50;219023;1276;23884;-71
2022/07/21 21:12:00;;;;;;;23.30;17.80;;;;;;;23.32;46.15;98702.79;219017;1276;23969;-70
2022/07/21 21:17:15;;;;;;;10.70;7.10;;;;;;;23.21;46.50;98698.69;219059;1276;22544;-70
2022/07/21 21:22:38;;;;;;;8.00;4.60;;;;;;;23.10;46.79;98690.52;218979;1276;22542;-70
2022/07/21 21:27:43;;;;;;;7.40;4.40;;;;;;;23.00;47.03;98680.48;219180;1276;22645;-68
2022/07/21 21:32:46;;;;;;;6.10;4.10;;;;;;;22.89;47.34;98684.52;218991;1276;25433;-69
2022/07/21 21:37:50;;;;;;;5.20;4.40;;;;;;;22.81;47.80;98684.03;219008;1276;25411;-71
2022/07/21 21:42:53;;;;;;;6.60;4.70;;;;;;;22.72;47.93;98684.08;219117;1276;25634;-69
2022/07/21 21:47:55;;;;;;;5.80;4.30;;;;;;;22.63;48.18;98680.46;218852;1276;22656;-70
2022/07/21 21:52:57;;;;;;;7.20;4.80;;;;;;;22.57;48.61;98679.93;218850;1276;22785;-69
2022/07/21 21:58:00;;;;;;;5.30;4.30;;;;;;;22.55;49.05;98675.23;219205;1276;22540;-69
2022/07/21 22:03:02;;;;;;;4.50;4.10;;;;;;;22.52;49.24;98675.04;219154;1276;23812;-69
2022/07/21 22:08:08;;;;;;;5.60;3.90;;;;;;;22.49;49.49;98679.58;219156;1276;22807;-70
2022/07/21 22:13:10;;;;;;;5.60;4.00;;;;;;;22.42;49.62;98680.60;219149;1276;25595;-69
2022/07/21 22:18:12;;;;;;;5.40;3.90;;;;;;;22.34;49.97;98678.69;218906;1276;25358;-70
2022/07/21 22:23:15;;;;;;;5.40;4.00;;;;;;;22.26;50.27;98678.16;219392;1276;22771;-72
2022/07/21 22:28:17;;;;;;;6.10;3.70;;;;;;;22.19;50.44;98680.89;219047;1276;23887;-70
2022/07/21 22:33:19;;;;;;;5.40;4.30;;;;;;;22.14;50.47;98680.26;219156;1276;25009;-70
2022/07/21 22:38:21;;;;;;;7.10;4.30;;;;;;;22.09;50.69;98680.89;219035;1277;24929;-70
2022/07/21 22:43:24;;;;;;;6.00;3.80;;;;;;;22.02;50.62;98691.56;219162;1276;22553;-69
2022/07/21 22:48:27;;;;;;;5.80;4.00;;;;;;;21.95;50.68;98699.02;219176;1276;22924;-70
2022/07/21 22:53:29;;;;;;;6.50;4.30;;;;;;;21.90;51.12;98724.80;219078;1277;22560;-70
2022/07/21 22:58:32;;;;;;;5.70;4.40;;;;;;;21.82;51.50;98734.71;219177;1277;22555;-71
2022/07/21 23:03:34;;;;;;;7.50;4.60;;;;;;;21.72;51.80;98739.52;219140;1276;22572;-70
2022/07/21 23:08:37;;;;;;;6.10;4.20;;;;;;;21.67;52.04;98732.66;218839;1277;22633;-70
2022/07/21 23:13:59;;;;;;;6.60;4.40;;;;;;;21.69;52.20;98727.33;219139;1276;22611;-70
2022/07/21 23:19:02;;;;;;;6.30;4.60;;;;;;;21.75;52.17;98736.94;219200;1277;25424;-69
2022/07/21 23:24:13;;;;;;;6.20;4.00;;;;;;;21.77;52.28;98741.09;219187;1276;22579;-71
2022/07/21 23:29:21;;;;;;;4.80;4.00;;;;;;;21.76;52.30;98741.46;219337;1277;22590;-70
2022/07/21 23:34:24;;;;;;;5.30;4.10;;;;;;;21.73;52.28;98743.76;219354;1277;24123;-70
2022/07/21 23:39:26;;;;;;;5.70;4.00;;;;;;;21.70;52.37;98736.30;219070;1278;22544;-69
2022/07/21 23:44:28;;;;;;;6.90;4.50;;;;;;;21.65;52.45;98730.93;219106;1276;22578;-70
2022/07/21 23:49:31;;;;;;;5.00;3.90;;;;;;;21.62;52.65;98733.14;219029;1276;23603;-70
2022/07/21 23:54:33;;;;;;;4.40;3.90;;;;;;;21.60;52.79;98729.05;219190;1276;22998;-70
2022/07/21 23:59:36;;;;;;;5.70;4.00;;;;;;;21.56;52.82;98730.85;219046;1276;24227;-69
